< < Back
Terminal Aerodrome Forecast


Current Version              Previous Versions:   1  2  3  4  5  6  7  8  9  

Terminal Aerodrome Forecast

127
FTUS44 KHUN 020241 AAA
TAFHSV
TAF AMD
KHSV 020241Z 0203/0224 13005KT P6SM SCT250
     FM020800 16004KT 5SM BR BKN020
     FM021600 22007KT P6SM VCTS BKN020CB OVC050=

Latest METAR

148
SAUS80 KWBC 020800 RRA
MTRHSV
METAR KHSV 020753Z AUTO 00000KT 10SM CLR 17/15 A2999 RMK AO2 SLP147
T01670150 $


USA.gov is the U.S. government's official web portal to all federal, state and local government web resources and services.